Time;durP1;ratioP1;P1;durP2;ratioP2;P2;SDS_P1;SDS_P2;PMS_P1;PMS_P2;Temp;Humidity;BMP_temperature;BMP_pressure;BME280_temperature;BME280_humidity;BME280_pressure;Samples;Min_cycle;Max_cycle;Signal;HPM_P1;HPM_P2
2022/07/02 00:00:23;;;;;;;;;;;;;;;15.84;97.43;99731.42;1706439;84;20442;-71
2022/07/02 00:02:53;;;;;;;;;;;;;;;15.78;97.93;99738.92;1708600;84;20123;-71
2022/07/02 00:05:37;;;;;;;;;;;;;;;15.73;98.28;99742.73;1708939;82;20076;-71
2022/07/02 00:07:54;;;;;;;;;;;;;;;15.69;98.44;99739.61;1690917;84;20095;-71
2022/07/02 00:10:21;;;;;;;;;;;;;;;15.66;98.58;99739.72;1709044;84;21807;-71
2022/07/02 00:12:48;;;;;;;;;;;;;;;15.62;98.65;99733.26;1709443;84;20112;-71
2022/07/02 00:15:15;;;;;;;;;;;;;;;15.61;98.74;99735.80;1709280;84;20148;-71
2022/07/02 00:17:45;;;;;;;;;;;;;;;15.58;98.66;99736.52;1709402;84;20083;-71
2022/07/02 00:20:18;;;;;;;;;;;;;;;15.55;98.70;99734.41;1687967;84;20083;-71
2022/07/02 00:22:49;;;;;;;;;;;;;;;15.51;98.83;99736.24;1709481;84;21120;-71
2022/07/02 00:25:20;;;;;;;;;;;;;;;15.46;98.72;99735.08;1708630;84;20084;-71
2022/07/02 00:27:47;;;;;;;;;;;;;;;15.41;99.06;99733.34;1708992;84;20168;-71
2022/07/02 00:30:15;;;;;;;;;;;;;;;15.39;99.44;99737.60;1709146;82;20119;-71
2022/07/02 00:32:44;;;;;;;;;;;;;;;15.37;99.58;99737.95;1706522;84;20084;-71
2022/07/02 00:35:16;;;;;;;;;;;;;;;15.33;99.66;99742.55;1690092;84;20100;-71
2022/07/02 00:37:44;;;;;;;;;;;;;;;15.31;99.68;99744.04;1689935;84;20135;-71
2022/07/02 00:40:16;;;;;;;;;;;;;;;15.28;99.70;99752.45;1709302;84;20084;-71
2022/07/02 00:42:44;;;;;;;;;;;;;;;15.26;99.77;99752.55;1700280;82;20135;-71
2022/07/02 00:45:13;;;;;;;;;;;;;;;15.26;99.71;99756.13;1730672;82;20427;-71
2022/07/02 00:47:44;;;;;;;;;;;;;;;15.24;99.68;99750.70;1738784;82;21141;-71
2022/07/02 00:50:18;;;;;;;;;;;;;;;15.18;99.77;99749.53;1738397;82;20436;-71
2022/07/02 00:52:46;;;;;;;;;;;;;;;15.16;99.86;99751.83;1738721;82;20094;-71
2022/07/02 00:55:18;;;;;;;;;;;;;;;15.14;100.00;99749.17;1738543;82;20070;-71
2022/07/02 00:57:48;;;;;;;;;;;;;;;15.11;100.00;99749.86;1718438;82;20432;-71
2022/07/02 01:00:19;;;;;;;;;;;;;;;15.08;100.00;99746.39;1738779;82;21805;-71
2022/07/02 01:02:50;;;;;;;;;;;;;;;15.05;100.00;99743.73;1718935;82;20116;-71
2022/07/02 01:05:20;;;;;;;;;;;;;;;15.02;100.00;99740.27;1717699;82;20137;-71
2022/07/02 01:10:45;;;;;;;;;;;;;;;14.97;100.00;99749.37;1719575;82;20420;-71
2022/07/02 01:13:18;;;;;;;;;;;;;;;14.96;100.00;99747.76;1718918;82;20113;-70
2022/07/02 01:15:49;;;;;;;;;;;;;;;14.94;100.00;99745.91;1738579;82;20102;-71
2022/07/02 01:18:22;;;;;;;;;;;;;;;14.93;100.00;99739.57;1737813;82;20081;-71
2022/07/02 01:20:51;;;;;;;;;;;;;;;14.92;100.00;99752.34;1739019;82;20113;-71
2022/07/02 01:23:25;;;;;;;;;;;;;;;14.86;100.00;99751.17;1720328;82;20423;-71
2022/07/02 01:25:52;;;;;;;;;;;;;;;14.82;100.00;99751.62;1738630;82;21483;-71
2022/07/02 01:28:20;;;;;;;;;;;;;;;14.79;100.00;99750.10;1738610;82;20114;-71
2022/07/02 01:30:56;;;;;;;;;;;;;;;14.77;100.00;99756.55;1738789;82;20121;-71
2022/07/02 01:33:23;;;;;;;;;;;;;;;14.75;100.00;99757.45;1738057;82;20090;-71
2022/07/02 01:35:55;;;;;;;;;;;;;;;14.71;100.00;99750.41;1738432;82;20078;-71
2022/07/02 01:38:24;;;;;;;;;;;;;;;14.70;100.00;99749.37;1738679;82;21134;-71
2022/07/02 01:41:38;;;;;;;;;;;;;;;14.66;100.00;99745.66;1695166;82;38930;-71
2022/07/02 01:43:27;;;;;;;;;;;;;;;14.64;100.00;99749.34;1735719;82;20149;-71
2022/07/02 01:45:56;;;;;;;;;;;;;;;14.64;100.00;99756.24;1719278;82;20086;-71
2022/07/02 01:48:23;;;;;;;;;;;;;;;14.62;100.00;99762.68;1738909;82;20102;-71
2022/07/02 01:50:55;;;;;;;;;;;;;;;14.59;100.00;99761.97;1719296;82;20468;-71
2022/07/02 01:53:29;;;;;;;;;;;;;;;14.59;100.00;99761.97;1719018;82;20105;-71
2022/07/02 01:56:04;;;;;;;;;;;;;;;14.53;100.00;99769.08;1738864;82;20105;-71
2022/07/02 01:58:35;;;;;;;;;;;;;;;14.50;100.00;99772.52;1738459;82;20602;-70
2022/07/02 02:01:00;;;;;;;;;;;;;;;14.48;100.00;99777.56;1718436;82;20102;-70
2022/07/02 02:03:29;;;;;;;;;;;;;;;14.49;100.00;99772.84;1738790;82;21142;-70
2022/07/02 02:06:03;;;;;;;;;;;;;;;14.52;100.00;99772.17;1718019;82;20113;-71
2022/07/02 02:08:33;;;;;;;;;;;;;;;14.54;100.00;99784.51;1702559;83;20151;-71
2022/07/02 02:11:00;;;;;;;;;;;;;;;14.55;100.00;99783.94;1703059;83;20152;-70
2022/07/02 02:13:28;;;;;;;;;;;;;;;14.49;100.00;99781.14;1684531;84;20103;-71
2022/07/02 02:16:02;;;;;;;;;;;;;;;14.47;100.00;99785.61;1690910;84;20526;-70
2022/07/02 02:18:35;;;;;;;;;;;;;;;14.49;100.00;99786.09;1708218;84;20100;-71
2022/07/02 02:21:06;;;;;;;;;;;;;;;14.48;100.00;99787.80;1690257;84;20088;-71
2022/07/02 02:23:36;;;;;;;;;;;;;;;14.46;100.00;99785.95;1708879;84;20378;-71
2022/07/02 02:26:08;;;;;;;;;;;;;;;14.46;100.00;99796.42;1713374;83;20128;-71
2022/07/02 02:28:43;;;;;;;;;;;;;;;14.48;100.00;99791.95;1685239;84;20427;-71
2022/07/02 02:31:07;;;;;;;;;;;;;;;14.47;100.00;99789.76;1708273;83;20084;-71
2022/07/02 02:33:37;;;;;;;;;;;;;;;14.48;100.00;99789.19;1709388;84;20099;-71
2022/07/02 02:36:09;;;;;;;;;;;;;;;14.48;100.00;99795.52;1709410;84;20197;-71
2022/07/02 02:38:53;;;;;;;;;;;;;;;14.50;100.00;99800.14;1701865;84;20087;-71
2022/07/02 02:41:20;;;;;;;;;;;;;;;14.52;100.00;99797.84;1709490;84;21246;-71
2022/07/02 02:44:02;;;;;;;;;;;;;;;14.56;100.00;99804.89;1684373;84;20407;-71
2022/07/02 02:46:20;;;;;;;;;;;;;;;14.60;100.00;99803.08;1707080;84;20100;-71
2022/07/02 02:48:46;;;;;;;;;;;;;;;14.64;100.00;99795.73;1709367;84;20147;-71
2022/07/02 02:51:15;;;;;;;;;;;;;;;14.69;100.00;99796.11;1709379;84;20100;-71
2022/07/02 02:53:44;;;;;;;;;;;;;;;14.75;100.00;99798.33;1709361;84;22126;-70
2022/07/02 02:56:19;;;;;;;;;;;;;;;14.83;100.00;99798.03;1709407;84;20095;-71
2022/07/02 02:58:51;;;;;;;;;;;;;;;14.93;100.00;99816.97;1708999;84;20123;-71
2022/07/02 03:01:23;;;;;;;;;;;;;;;15.00;100.00;99822.77;1709322;83;20092;-72
2022/07/02 03:03:48;;;;;;;;;;;;;;;15.07;100.00;99825.77;1709248;84;20119;-71
2022/07/02 03:06:23;;;;;;;;;;;;;;;15.22;100.00;99829.05;1709354;84;21118;-71
2022/07/02 03:08:51;;;;;;;;;;;;;;;15.35;100.00;99823.80;1708751;84;20151;-71
2022/07/02 03:11:28;;;;;;;;;;;;;;;15.50;100.00;99819.81;1690835;84;20138;-71
2022/07/02 03:13:58;;;;;;;;;;;;;;;15.64;100.00;99820.08;1709434;84;20147;-71
2022/07/02 03:16:27;;;;;;;;;;;;;;;15.75;100.00;99826.80;1709371;84;20119;-71
2022/07/02 03:18:55;;;;;;;;;;;;;;;15.83;100.00;99814.24;1709366;84;21167;-71
2022/07/02 03:21:24;;;;;;;;;;;;;;;15.92;100.00;99813.33;1709370;84;20257;-71
2022/07/02 03:23:56;;;;;;;;;;;;;;;16.01;100.00;99814.84;1709392;84;20101;-71
2022/07/02 03:26:22;;;;;;;;;;;;;;;16.12;100.00;99813.80;1690443;84;20088;-72
2022/07/02 03:29:04;;;;;;;;;;;;;;;16.24;100.00;99811.00;1703771;82;20120;-73
2022/07/02 03:31:28;;;;;;;;;;;;;;;16.37;100.00;99816.77;1734154;82;21582;-74
2022/07/02 03:33:55;;;;;;;;;;;;;;;16.50;100.00;99812.02;1742543;81;20083;-72
2022/07/02 03:36:24;;;;;;;;;;;;;;;16.62;100.00;99814.77;1735038;82;20138;-73
2022/07/02 03:38:58;;;;;;;;;;;;;;;16.77;100.00;99819.59;1735201;82;20632;-71
2022/07/02 03:41:30;;;;;;;;;;;;;;;16.93;100.00;99816.09;1735018;82;20416;-71
2022/07/02 03:44:04;;;;;;;;;;;;;;;17.08;100.00;99817.54;1761249;81;20834;-70
2022/07/02 03:46:28;;;;;;;;;;;;;;;17.22;100.00;99809.40;1764027;81;20470;-71
2022/07/02 03:48:55;;;;;;;;;;;;;;;17.35;100.00;99807.57;1764496;81;20084;-74
2022/07/02 03:51:26;;;;;;;;;;;;;;;17.49;100.00;99805.77;1752222;81;20188;-71
2022/07/02 03:53:57;;;;;;;;;;;;;;;17.64;100.00;99809.73;1704221;82;20111;-71
2022/07/02 03:56:31;;;;;;;;;;;;;;;17.81;100.00;99809.42;1704219;82;20157;-71
2022/07/02 03:59:01;;;;;;;;;;;;;;;17.95;100.00;99805.59;1736901;82;20425;-71
2022/07/02 04:01:35;;;;;;;;;;;;;;;18.08;100.00;99803.52;1705041;82;20142;-69
2022/07/02 04:04:03;;;;;;;;;;;;;;;18.20;99.42;99805.40;1735016;82;20106;-70
2022/07/02 04:06:32;;;;;;;;;;;;;;;18.34;98.72;99810.72;1731121;81;20094;-72
2022/07/02 04:08:59;;;;;;;;;;;;;;;18.47;97.95;99812.22;1735626;82;21118;-72
2022/07/02 04:11:30;;;;;;;;;;;;;;;18.58;97.04;99814.41;1735548;82;20094;-71
2022/07/02 04:14:01;;;;;;;;;;;;;;;18.66;96.72;99815.63;1728585;81;20110;-72
2022/07/02 04:16:26;;;;;;;;;;;;;;;18.80;95.37;99816.53;1734730;82;20090;-75
2022/07/02 04:18:59;;;;;;;;;;;;;;;18.92;95.02;99815.59;1734444;82;20091;-74
2022/07/02 04:21:23;;;;;;;;;;;;;;;19.03;95.02;99822.98;1734234;81;21083;-72
2022/07/02 04:23:51;;;;;;;;;;;;;;;19.14;95.19;99817.03;1735561;81;20162;-71
2022/07/02 04:26:22;;;;;;;;;;;;;;;19.25;93.67;99819.23;1734788;82;20142;-72
2022/07/02 04:28:49;;;;;;;;;;;;;;;19.37;90.94;99826.03;1714990;82;20158;-72
2022/07/02 04:31:20;;;;;;;;;;;;;;;19.49;89.53;99820.30;1709674;82;20095;-69
2022/07/02 04:33:46;;;;;;;;;;;;;;;19.61;87.96;99827.13;1708537;84;21142;-71
2022/07/02 04:36:19;;;;;;;;;;;;;;;19.71;86.05;99828.48;1709688;84;20438;-70
2022/07/02 04:38:49;;;;;;;;;;;;;;;19.82;85.88;99834.24;1689092;84;20160;-69
2022/07/02 04:41:25;;;;;;;;;;;;;;;19.90;85.04;99838.17;1709285;84;20104;-69
2022/07/02 04:43:58;;;;;;;;;;;;;;;19.97;84.88;99830.53;1705355;82;20092;-69
2022/07/02 04:46:24;;;;;;;;;;;;;;;20.04;85.54;99838.42;1709073;84;21150;-70
2022/07/02 04:48:55;;;;;;;;;;;;;;;20.14;85.66;99848.73;1708961;84;20116;-71
2022/07/02 04:51:25;;;;;;;;;;;;;;;20.23;85.83;99845.88;1736723;82;20099;-71
2022/07/02 04:53:53;;;;;;;;;;;;;;;20.34;86.34;99843.27;1708690;84;20104;-71
2022/07/02 04:56:27;;;;;;;;;;;;;;;20.43;85.17;99844.66;1709092;84;20143;-71
2022/07/02 04:58:54;;;;;;;;;;;;;;;20.52;85.16;99845.78;1689702;83;20403;-71
2022/07/02 05:01:23;;;;;;;;;;;;;;;20.59;85.22;99844.50;1709232;84;20430;-71
2022/07/02 05:03:51;;;;;;;;;;;;;;;20.68;84.87;99845.03;1709261;84;20195;-74
2022/07/02 05:06:22;;;;;;;;;;;;;;;20.79;83.90;99842.40;1709283;84;20504;-71
2022/07/02 05:08:56;;;;;;;;;;;;;;;20.88;83.95;99844.29;1709287;84;20128;-69
2022/07/02 05:11:22;;;;;;;;;;;;;;;20.99;84.18;99848.03;1709020;84;21176;-70
2022/07/02 05:13:57;;;;;;;;;;;;;;;21.06;82.92;99845.34;1689861;84;20071;-70
2022/07/02 05:16:30;;;;;;;;;;;;;;;21.17;82.19;99847.46;1709207;84;20100;-69
2022/07/02 05:18:59;;;;;;;;;;;;;;;21.20;80.84;99844.72;1712433;83;20083;-69
2022/07/02 05:21:26;;;;;;;;;;;;;;;21.24;80.29;99851.18;1708719;83;20423;-69
2022/07/02 05:23:55;;;;;;;;;;;;;;;21.27;80.07;99855.20;1708826;84;21159;-71
2022/07/02 05:26:30;;;;;;;;;;;;;;;21.34;80.18;99856.69;1690351;84;20123;-71
2022/07/02 05:28:59;;;;;;;;;;;;;;;21.40;79.90;99852.34;1727398;81;20090;-71
2022/07/02 05:31:29;;;;;;;;;;;;;;;21.49;79.25;99855.64;1735319;82;20401;-72
2022/07/02 05:34:00;;;;;;;;;;;;;;;21.58;78.22;99856.73;1728857;81;20118;-72
2022/07/02 05:36:33;;;;;;;;;;;;;;;21.67;77.59;99859.44;1703752;82;20119;-70
2022/07/02 05:39:07;;;;;;;;;;;;;;;21.75;77.55;99861.13;1737215;81;20437;-70
2022/07/02 05:41:37;;;;;;;;;;;;;;;21.84;77.92;99863.61;1751107;81;20079;-70
2022/07/02 05:44:04;;;;;;;;;;;;;;;21.95;78.53;99864.49;1765339;81;20527;-69
2022/07/02 05:46:38;;;;;;;;;;;;;;;22.08;77.75;99865.84;1733607;80;20116;-71
2022/07/02 05:49:07;;;;;;;;;;;;;;;22.17;76.71;99864.13;1761368;81;22053;-70
2022/07/02 05:51:38;;;;;;;;;;;;;;;22.24;76.13;99860.00;1732391;81;20092;-72
2022/07/02 05:54:07;;;;;;;;;;;;;;;22.31;76.76;99864.84;1766090;81;20080;-71
2022/07/02 05:56:39;;;;;;;;;;;;;;;22.43;76.10;99874.94;1765714;81;20603;-71
2022/07/02 05:59:10;;;;;;;;;;;;;;;22.52;76.48;99875.41;1765985;80;20085;-71
2022/07/02 06:01:40;;;;;;;;;;;;;;;22.61;76.52;99880.05;1732955;81;20092;-71
2022/07/02 06:04:16;;;;;;;;;;;;;;;22.64;74.74;99884.86;1764382;81;20139;-71
2022/07/02 06:09:28;;;;;;;;;;;;;;;22.76;75.01;99888.75;1766015;81;20096;-72
2022/07/02 06:11:58;;;;;;;;;;;;;;;22.87;74.70;99891.05;1766426;81;20100;-71
2022/07/02 06:14:27;;;;;;;;;;;;;;;23.00;74.29;99896.54;1766015;81;21240;-73
2022/07/02 06:17:00;;;;;;;;;;;;;;;23.11;73.26;99893.00;1734184;81;20156;-71
2022/07/02 06:19:38;;;;;;;;;;;;;;;23.17;71.74;99895.60;1734192;81;20080;-73
2022/07/02 06:22:06;;;;;;;;;;;;;;;23.25;71.46;99898.64;1764058;80;20165;-72
2022/07/02 06:24:37;;;;;;;;;;;;;;;23.36;72.53;99905.10;1765739;81;20399;-73
2022/07/02 06:27:03;;;;;;;;;;;;;;;23.47;71.01;99900.35;1759460;81;21279;-71
2022/07/02 06:29:34;;;;;;;;;;;;;;;23.56;70.83;99903.63;1743805;81;20069;-73
2022/07/02 06:32:13;;;;;;;;;;;;;;;23.68;70.74;99914.45;1738110;82;20138;-73
2022/07/02 06:34:43;;;;;;;;;;;;;;;23.81;70.02;99905.67;1738927;82;20117;-69
2022/07/02 06:37:10;;;;;;;;;;;;;;;23.88;67.01;99903.70;1718252;82;20181;-71
2022/07/02 06:39:41;;;;;;;;;;;;;;;23.94;67.53;99909.13;1719303;82;20374;-71
2022/07/02 06:42:22;;;;;;;;;;;;;;;24.04;68.85;99903.33;1738778;81;20073;-74
2022/07/02 06:44:52;;;;;;;;;;;;;;;24.17;67.75;99905.96;1738804;82;20142;-74
2022/07/02 06:47:21;;;;;;;;;;;;;;;24.26;66.41;99903.56;1718531;82;20424;-72
2022/07/02 06:49:53;;;;;;;;;;;;;;;24.34;65.03;99903.77;1738940;82;20113;-71
2022/07/02 06:52:22;;;;;;;;;;;;;;;24.43;64.56;99903.98;1718573;82;20081;-72
2022/07/02 06:54:50;;;;;;;;;;;;;;;24.52;64.11;99902.37;1739033;82;20085;-72
2022/07/02 06:57:26;;;;;;;;;;;;;;;24.61;64.69;99902.78;1710970;82;20508;-70
2022/07/02 06:59:54;;;;;;;;;;;;;;;24.73;63.76;99897.36;1703244;83;20119;-71
2022/07/02 07:02:22;;;;;;;;;;;;;;;24.87;63.19;99906.33;1709448;84;20116;-71
2022/07/02 07:04:50;;;;;;;;;;;;;;;24.97;62.26;99906.34;1656678;85;20154;-70
2022/07/02 07:07:25;;;;;;;;;;;;;;;25.05;61.63;99900.72;1677616;85;20497;-72
2022/07/02 07:09:52;;;;;;;;;;;;;;;25.13;62.07;99901.70;1676899;85;20188;-73
2022/07/02 07:12:24;;;;;;;;;;;;;;;25.22;60.21;99899.87;1675447;84;20194;-74
2022/07/02 07:14:47;;;;;;;;;;;;;;;25.25;61.18;99906.88;1676630;85;20125;-71
2022/07/02 07:17:16;;;;;;;;;;;;;;;25.32;61.68;99901.23;1657280;85;21141;-71
2022/07/02 07:19:51;;;;;;;;;;;;;;;25.41;59.96;99900.81;1679383;83;20431;-71
2022/07/02 07:22:17;;;;;;;;;;;;;;;25.39;58.39;99901.82;1675113;83;20131;-72
2022/07/02 07:24:45;;;;;;;;;;;;;;;25.38;57.69;99901.63;1684399;83;20491;-72
2022/07/02 07:27:13;;;;;;;;;;;;;;;25.42;56.56;99903.02;1743406;81;20118;-73
2022/07/02 07:29:47;;;;;;;;;;;;;;;25.42;58.27;99895.98;1738646;82;21136;-72
2022/07/02 07:32:16;;;;;;;;;;;;;;;25.48;55.61;99899.34;1738780;82;20093;-73
2022/07/02 07:34:48;;;;;;;;;;;;;;;25.59;57.04;99900.70;1718056;82;20098;-74
2022/07/02 07:37:19;;;;;;;;;;;;;;;25.68;57.10;99907.32;1739016;82;20635;-72
2022/07/02 07:39:53;;;;;;;;;;;;;;;25.77;56.02;99921.13;1719438;82;20114;-69
2022/07/02 07:42:25;;;;;;;;;;;;;;;25.92;56.41;99915.63;1739014;82;21125;-68
2022/07/02 07:44:53;;;;;;;;;;;;;;;26.09;53.97;99923.73;1738516;82;20102;-67
2022/07/02 07:47:21;;;;;;;;;;;;;;;26.20;51.96;99917.44;1738652;82;20093;-69
2022/07/02 07:49:53;;;;;;;;;;;;;;;26.33;47.01;99925.42;1738693;82;20090;-67
2022/07/02 07:52:17;;;;;;;;;;;;;;;26.31;48.66;99925.84;1738375;82;20093;-67
2022/07/02 07:54:50;;;;;;;;;;;;;;;26.23;46.78;99931.29;1719696;82;20672;-69
2022/07/02 07:57:19;;;;;;;;;;;;;;;26.15;48.78;99933.34;1738407;82;20097;-71
2022/07/02 07:59:44;;;;;;;;;;;;;;;26.09;47.48;99938.41;1738573;82;20098;-70
2022/07/02 08:02:15;;;;;;;;;;;;;;;26.09;47.06;99933.59;1738838;82;20120;-69
2022/07/02 08:04:41;;;;;;;;;;;;;;;26.22;47.03;99934.70;1738698;81;20109;-70
2022/07/02 08:07:13;;;;;;;;;;;;;;;26.36;47.24;99935.25;1717574;82;20121;-71
2022/07/02 08:09:43;;;;;;;;;;;;;;;26.37;47.39;99938.26;1738010;82;20098;-72
2022/07/02 08:12:12;;;;;;;;;;;;;;;26.44;48.03;99938.81;1719486;82;20098;-68
2022/07/02 08:14:40;;;;;;;;;;;;;;;26.59;47.22;99937.45;1719349;82;20657;-68
2022/07/02 08:17:10;;;;;;;;;;;;;;;26.78;47.42;99939.71;1719128;82;20085;-69
2022/07/02 08:19:44;;;;;;;;;;;;;;;26.93;43.86;99944.61;1719278;82;20121;-70
2022/07/02 08:22:19;;;;;;;;;;;;;;;27.09;46.55;99948.31;1718623;82;20081;-70
2022/07/02 08:24:53;;;;;;;;;;;;;;;27.33;45.32;99950.04;1718590;82;20495;-72
2022/07/02 08:27:21;;;;;;;;;;;;;;;27.57;46.52;99946.13;1738704;82;20406;-73
2022/07/02 08:29:59;;;;;;;;;;;;;;;27.50;44.73;99951.86;1718054;82;20125;-70
2022/07/02 08:32:29;;;;;;;;;;;;;;;27.39;45.13;99947.56;1737263;82;20994;-70
2022/07/02 08:35:00;;;;;;;;;;;;;;;27.51;45.20;99952.66;1738410;82;20164;-71
2022/07/02 08:37:26;;;;;;;;;;;;;;;27.73;44.08;99956.05;1737285;82;20123;-73
2022/07/02 08:39:52;;;;;;;;;;;;;;;27.92;43.61;99957.58;1739017;82;20118;-72
2022/07/02 08:42:28;;;;;;;;;;;;;;;28.19;42.93;99959.64;1738592;82;20109;-72
2022/07/02 08:44:57;;;;;;;;;;;;;;;28.37;42.77;99960.17;1738205;82;21278;-71
2022/07/02 08:47:24;;;;;;;;;;;;;;;28.56;41.89;99956.65;1738787;82;20138;-67
2022/07/02 08:49:54;;;;;;;;;;;;;;;28.71;40.24;99952.98;1738647;82;20128;-71
2022/07/02 08:52:29;;;;;;;;;;;;;;;28.73;41.53;99956.78;1738750;82;20121;-69
2022/07/02 08:55:02;;;;;;;;;;;;;;;28.57;41.31;99956.03;1738714;82;20109;-71
2022/07/02 08:57:33;;;;;;;;;;;;;;;28.58;43.00;99961.25;1738578;82;21134;-71
2022/07/02 09:00:04;;;;;;;;;;;;;;;28.70;42.89;99961.27;1738428;81;20069;-71
2022/07/02 09:02:28;;;;;;;;;;;;;;;28.57;40.69;99961.69;1738411;82;20081;-73
2022/07/02 09:04:55;;;;;;;;;;;;;;;28.21;40.50;99962.25;1738701;82;20468;-73
2022/07/02 09:07:31;;;;;;;;;;;;;;;28.02;40.60;99964.30;1738555;82;20432;-73
2022/07/02 09:09:57;;;;;;;;;;;;;;;28.26;41.39;99951.89;1738416;81;21977;-70
2022/07/02 09:12:27;;;;;;;;;;;;;;;28.74;40.43;99959.80;1738627;82;20081;-69
2022/07/02 09:15:02;;;;;;;;;;;;;;;29.16;40.09;99961.08;1718472;82;20081;-70
2022/07/02 09:17:31;;;;;;;;;;;;;;;29.48;37.86;99958.44;1718327;82;20098;-70
2022/07/02 09:20:00;;;;;;;;;;;;;;;29.55;38.07;99954.67;1738634;82;20137;-71
2022/07/02 09:22:34;;;;;;;;;;;;;;;29.32;38.75;99951.28;1738745;82;21117;-71
2022/07/02 09:25:07;;;;;;;;;;;;;;;29.15;39.69;99957.45;1736818;82;20125;-72
2022/07/02 09:27:33;;;;;;;;;;;;;;;28.99;40.11;99965.02;1735659;82;20094;-70
2022/07/02 09:30:04;;;;;;;;;;;;;;;28.71;38.89;99965.69;1738412;82;20070;-68
2022/07/02 09:32:40;;;;;;;;;;;;;;;28.64;40.94;99965.80;1738341;82;20105;-71
2022/07/02 09:35:10;;;;;;;;;;;;;;;28.87;40.95;99956.58;1738393;82;21523;-74
2022/07/02 09:37:40;;;;;;;;;;;;;;;29.28;39.67;99954.80;1735688;82;20081;-72
2022/07/02 09:40:10;;;;;;;;;;;;;;;29.56;40.45;99959.89;1738330;82;20128;-70
2022/07/02 09:42:44;;;;;;;;;;;;;;;29.87;38.25;99956.84;1738828;81;20098;-72
2022/07/02 09:45:10;;;;;;;;;;;;;;;30.12;38.44;99957.70;1737988;82;20435;-71
2022/07/02 09:47:41;;;;;;;;;;;;;;;30.22;38.16;99958.88;1738710;82;21156;-71
2022/07/02 09:50:15;;;;;;;;;;;;;;;30.39;37.98;99963.95;1718513;82;20456;-72
2022/07/02 09:53:02;;;;;;;;;;;;;;;30.55;35.91;99963.97;1718919;82;20534;-71
2022/07/02 09:55:37;;;;;;;;;;;;;;;30.55;36.28;99965.39;1738600;82;20093;-72
2022/07/02 09:58:05;;;;;;;;;;;;;;;30.65;35.98;99968.41;1738658;82;20094;-69
2022/07/02 10:00:38;;;;;;;;;;;;;;;30.70;33.73;99962.20;1738674;82;21091;-68
2022/07/02 10:03:02;;;;;;;;;;;;;;;30.50;33.97;99959.45;1738402;82;20110;-72
2022/07/02 10:05:34;;;;;;;;;;;;;;;30.33;34.29;99962.88;1738799;82;20117;-72
2022/07/02 10:08:08;;;;;;;;;;;;;;;30.40;35.29;99964.13;1738618;81;20149;-74
2022/07/02 10:10:39;;;;;;;;;;;;;;;30.67;36.31;99965.31;1719296;82;20428;-73
2022/07/02 10:13:09;;;;;;;;;;;;;;;30.94;35.69;99966.45;1738526;82;21646;-73
2022/07/02 10:15:48;;;;;;;;;;;;;;;31.06;35.33;99967.77;1738994;82;20455;-72
2022/07/02 10:18:19;;;;;;;;;;;;;;;31.15;36.38;99961.67;1738433;82;20117;-75
2022/07/02 10:20:48;;;;;;;;;;;;;;;31.36;35.56;99963.72;1737677;82;20701;-74
2022/07/02 10:23:17;;;;;;;;;;;;;;;31.58;35.46;99958.25;1725795;82;20083;-70
2022/07/02 10:25:52;;;;;;;;;;;;;;;31.69;34.41;99959.56;1633130;86;20154;-71
2022/07/02 10:28:18;;;;;;;;;;;;;;;31.70;32.67;99956.90;1664548;86;20151;-71
2022/07/02 10:30:50;;;;;;;;;;;;;;;31.45;33.32;99953.32;1679504;84;20429;-71
2022/07/02 10:33:40;;;;;;;;;;;;;;;30.94;33.58;99951.48;1710267;82;20074;-70
2022/07/02 10:36:09;;;;;;;;;;;;;;;30.54;34.64;99946.00;1707296;84;20119;-73
2022/07/02 10:38:38;;;;;;;;;;;;;;;30.35;35.36;99951.91;1707288;84;20829;-72
2022/07/02 10:41:17;;;;;;;;;;;;;;;30.48;34.39;99944.94;1685444;84;20100;-72
2022/07/02 10:43:42;;;;;;;;;;;;;;;30.49;33.62;99938.83;1707344;83;20419;-73
2022/07/02 10:46:10;;;;;;;;;;;;;;;30.45;34.64;99939.53;1707554;84;20112;-72
2022/07/02 10:48:57;;;;;;;;;;;;;;;30.54;34.01;99936.09;1685985;84;20422;-71
2022/07/02 10:51:28;;;;;;;;;;;;;;;30.64;33.38;99932.81;1702113;84;21158;-72
2022/07/02 10:54:03;;;;;;;;;;;;;;;30.65;35.13;99928.12;1707392;84;20096;-70
2022/07/02 10:56:33;;;;;;;;;;;;;;;30.85;34.85;99933.69;1707552;82;20147;-70
2022/07/02 10:59:02;;;;;;;;;;;;;;;31.09;33.09;99930.81;1705765;84;20438;-71
2022/07/02 11:01:30;;;;;;;;;;;;;;;31.17;34.15;99925.78;1707256;84;20119;-68
2022/07/02 11:04:02;;;;;;;;;;;;;;;31.28;33.27;99918.36;1706740;82;21175;-68
2022/07/02 11:06:31;;;;;;;;;;;;;;;31.33;32.46;99914.36;1706880;84;21087;-71
2022/07/02 11:09:04;;;;;;;;;;;;;;;31.49;32.81;99915.72;1707308;84;20435;-71
2022/07/02 11:11:38;;;;;;;;;;;;;;;31.72;33.44;99924.61;1684866;84;20115;-71
2022/07/02 11:14:09;;;;;;;;;;;;;;;31.93;32.26;99915.24;1706675;84;20136;-71
2022/07/02 11:16:51;;;;;;;;;;;;;;;31.95;31.87;99922.06;1707153;83;21168;-70
2022/07/02 11:19:22;;;;;;;;;;;;;;;31.67;31.68;99917.23;1704398;84;20104;-68
2022/07/02 11:21:54;;;;;;;;;;;;;;;31.42;31.58;99917.96;1707216;82;20446;-74
2022/07/02 11:24:21;;;;;;;;;;;;;;;31.19;31.86;99917.63;1707700;82;20084;-69
2022/07/02 11:26:50;;;;;;;;;;;;;;;31.30;32.03;99914.45;1707329;84;20128;-67
2022/07/02 11:29:16;;;;;;;;;;;;;;;31.49;32.74;99907.20;1686107;83;21162;-71
2022/07/02 11:31:47;;;;;;;;;;;;;;;31.62;32.98;99910.70;1711653;81;20566;-70
2022/07/02 11:34:20;;;;;;;;;;;;;;;31.74;32.81;99909.97;1708820;84;20088;-71
2022/07/02 11:36:51;;;;;;;;;;;;;;;31.80;31.86;99910.97;1689789;84;20092;-72
2022/07/02 11:39:24;;;;;;;;;;;;;;;31.81;33.61;99903.42;1709117;84;20108;-72
2022/07/02 11:41:51;;;;;;;;;;;;;;;32.05;33.58;99907.36;1709167;84;20910;-73
2022/07/02 11:44:23;;;;;;;;;;;;;;;32.29;32.22;99914.33;1690419;84;20096;-74
2022/07/02 11:46:58;;;;;;;;;;;;;;;32.59;31.86;99912.11;1689978;84;20127;-71
2022/07/02 11:49:28;;;;;;;;;;;;;;;32.78;30.87;99911.08;1708725;83;20143;-68
2022/07/02 11:51:59;;;;;;;;;;;;;;;32.89;30.34;99910.09;1690198;82;20425;-72
2022/07/02 11:54:32;;;;;;;;;;;;;;;33.07;28.47;99911.64;1710741;82;20081;-70
2022/07/02 11:57:02;;;;;;;;;;;;;;;32.95;30.42;99908.84;1738230;82;20117;-70
2022/07/02 11:59:35;;;;;;;;;;;;;;;32.73;30.54;99905.95;1738652;82;20121;-70
2022/07/02 12:02:04;;;;;;;;;;;;;;;32.57;29.24;99905.47;1738899;82;20118;-67
2022/07/02 12:04:30;;;;;;;;;;;;;;;32.38;30.40;99903.05;1738740;82;20133;-68
2022/07/02 12:07:02;;;;;;;;;;;;;;;32.50;30.36;99905.08;1738720;81;21145;-68
2022/07/02 12:09:31;;;;;;;;;;;;;;;32.71;31.25;99904.19;1738311;82;20513;-73
2022/07/02 12:12:05;;;;;;;;;;;;;;;32.83;30.59;99908.28;1718368;82;20448;-70
2022/07/02 12:14:33;;;;;;;;;;;;;;;32.84;30.50;99903.56;1738763;82;20247;-72
2022/07/02 12:16:59;;;;;;;;;;;;;;;32.81;30.79;99915.84;1738581;82;20481;-72
2022/07/02 12:19:29;;;;;;;;;;;;;;;32.90;31.56;99898.09;1738216;82;21470;-68
2022/07/02 12:21:56;;;;;;;;;;;;;;;33.06;31.10;99902.16;1738606;82;20093;-72
2022/07/02 12:24:31;;;;;;;;;;;;;;;33.22;30.59;99895.48;1738116;82;20086;-72
2022/07/02 12:27:07;;;;;;;;;;;;;;;33.26;30.11;99889.84;1736875;82;20089;-69
2022/07/02 12:29:56;;;;;;;;;;;;;;;33.32;29.44;99885.80;1703047;83;20115;-69
2022/07/02 12:32:26;;;;;;;;;;;;;;;33.36;29.00;99888.68;1709412;84;21125;-70
2022/07/02 12:34:56;;;;;;;;;;;;;;;33.22;28.17;99897.70;1709506;82;20122;-72
2022/07/02 12:37:40;;;;;;;;;;;;;;;33.00;28.43;99897.68;1709216;82;20088;-70
2022/07/02 12:40:13;;;;;;;;;;;;;;;32.98;29.71;99897.97;1686983;84;20123;-73
2022/07/02 12:42:55;;;;;;;;;;;;;;;33.17;29.64;99894.03;1709860;83;20133;-73
2022/07/02 12:45:28;;;;;;;;;;;;;;;33.29;29.36;99889.57;1709942;83;22039;-73
2022/07/02 12:48:05;;;;;;;;;;;;;;;33.43;29.17;99889.05;1711082;83;20119;-71
2022/07/02 12:50:34;;;;;;;;;;;;;;;33.50;29.09;99893.67;1709901;84;20099;-70
2022/07/02 12:53:07;;;;;;;;;;;;;;;33.51;27.95;99887.48;1709861;83;20099;-71
2022/07/02 12:55:41;;;;;;;;;;;;;;;33.41;29.03;99881.59;1710049;84;20091;-71
2022/07/02 12:58:11;;;;;;;;;;;;;;;33.55;27.77;99888.78;1708906;84;21178;-69
2022/07/02 13:00:41;;;;;;;;;;;;;;;33.69;26.78;99874.80;1709714;83;20091;-70
2022/07/02 13:03:13;;;;;;;;;;;;;;;33.71;26.94;99877.17;1654842;85;20151;-69
2022/07/02 13:05:45;;;;;;;;;;;;;;;33.72;28.09;99875.91;1679792;84;20119;-69
2022/07/02 13:08:20;;;;;;;;;;;;;;;33.91;28.54;99871.14;1677454;84;20133;-69